• Join FlightAware (Why Join?)
  • Login
  • US Flag 
 
10:53PM EST


 

Airport Tracker/Info


-or-


 

Live Flight TrackerFlight Track Log ✈ UAL335 ✈ 28-Apr-2013 ✈ KDEN - KTPA

Flight Track Log - Related Links

Times and Time Zones

All times are in EDT time to prevent confusion due to time zone crossing. See the UAL335 flight status page for this flight to view local times or setup timezone preferences in your user account.

Time Position Orientation Groundspeed Altitude Reporting Facility
EDT Latitude Longitude Course Direction KTS MPH feet Rate Location/Type
12:21PM 39.8000 -104.6667 110° East 195 224 6,900  Level Denver TRACON
12:21PM 39.7783 -104.6453 143° Southeast 207 238 7,200 1,320 Climbing Denver Center
12:22PM 39.7611 -104.5600 105° East 256 295 8,700 1,620 Climbing Denver Center
12:23PM 39.7367 -104.4486 106° East 296 341 10,600 1,560 Climbing Denver Center
12:24PM 39.6745 -104.0695 117° Southeast  Level FlightAware Approximate
12:24PM 39.7100 -104.3233 105° East 358 412 12,000  Level Denver Center
12:25PM 39.6271 -103.9221 116° Southeast  Level FlightAware Approximate
12:25PM 39.6858 -104.1914 103° East 377 434 14,400  Level Denver Center
12:26PM 39.5807 -103.7742 110° East  Level FlightAware Approximate
12:26PM 39.6667 -104.0433 100° East 387 445 16,700  Level Denver Center
12:27PM 39.6336 -103.9039 107° East 410 472 18,200 1,680 Climbing Denver Center
12:28PM 39.5778 -103.7564 116° Southeast 422 486 20,200 1,740 Climbing Denver Center
12:29PM 39.5439 -103.6119 107° East 419 482 21,800 1,440 Climbing Denver Center
12:30PM 39.5044 -103.4603 109° East 436 502 23,200 1,260 Climbing Denver Center
12:31PM 39.4631 -103.3061 109° East 448 516 24,500 1,200 Climbing Denver Center
12:32PM 39.4208 -103.1506 109° East 454 522 25,800 1,200 Climbing Denver Center
12:34PM 39.3800 -102.9906 108° East 462 532 27,000 1,200 Climbing Denver Center
12:35PM 39.3289 -102.8033 109° East 470 541 28,300 1,200 Climbing Denver Center
12:36PM 39.2897 -102.6617 110° East 472 543 29,600 960 Climbing Denver Center
12:37PM 39.2419 -102.4850 109° East 468 539 30,300 660 Climbing Denver Center
12:38PM 39.1897 -102.3406 115° Southeast 469 540 31,000 840 Climbing Denver Center
12:39PM 39.0897 -102.2036 133° Southeast 473 544 32,100 1,140 Climbing Denver Center
12:40PM 39.0022 -102.0919 135° Southeast 468 539 33,400 1,200 Climbing Denver Center
12:41PM 38.9028 -101.9625 135° Southeast 458 527 34,700 720 Climbing Denver Center
12:42PM 38.8175 -101.8550 135° Southeast 450 518 35,000 120 Climbing Denver Center
12:43PM 38.7189 -101.7297 135° Southeast 448 516 35,000  Level Denver Center
12:44PM 38.6333 -101.6197 135° Southeast 452 520 35,000  Level Denver Center
12:45PM 38.5339 -101.4933 135° Southeast 452 520 35,000  Level Denver Center
12:46PM 38.4483 -101.3856 135° Southeast 452 520 35,000  Level Denver Center
12:47PM 38.3478 -101.2592 135° Southeast 452 520 35,000  Level Denver Center
12:48PM 38.2622 -101.1517 135° Southeast 451 519 35,000  Level Denver Center
12:49PM 38.1633 -101.0286 136° Southeast 444 511 35,000  Level Denver Center
12:50PM 38.0775 -100.9219 136° Southeast 448 516 35,000  Level Denver Center
12:51PM 38.0197 -100.8497 135° Southeast 449 517 35,000  Level Kansas City Center
12:52PM 37.9347 -100.7439 136° Southeast 446 513 35,000  Level Kansas City Center
12:53PM 37.8336 -100.6167 135° Southeast 450 518 35,000  Level Kansas City Center
12:54PM 37.7422 -100.4986 134° Southeast 453 521 35,000  Level Kansas City Center
12:55PM 37.6631 -100.4006 136° Southeast 448 516 35,000  Level Kansas City Center
12:56PM 37.5653 -100.2769 135° Southeast 444 511 35,000  Level Kansas City Center
12:57PM 37.4825 -100.1725 135° Southeast 442 509 35,000  Level Kansas City Center
12:58PM 37.3853 -100.0508 135° Southeast 441 507 35,000  Level Kansas City Center
12:59PM 37.3019 -99.9461 135° Southeast 441 507 35,000  Level Kansas City Center
01:00PM 37.2042 -99.8236 135° Southeast 443 510 35,000  Level Kansas City Center
01:01PM 37.1206 -99.7208 136° Southeast 440 506 35,000  Level Kansas City Center
01:02PM 37.0233 -99.6014 136° Southeast 444 511 35,000  Level Kansas City Center
01:03PM 36.9336 -99.4922 136° Southeast 447 514 35,000  Level Kansas City Center
01:04PM 36.8450 -99.3817 135° Southeast 447 514 35,000  Level Kansas City Center
01:05PM 36.7561 -99.2725 135° Southeast 447 514 35,000  Level Kansas City Center
01:06PM 36.6664 -99.1644 136° Southeast 447 514 35,000  Level Kansas City Center
01:07PM 36.5767 -99.0539 135° Southeast 449 517 35,000  Level Kansas City Center
01:08PM 36.4867 -98.9447 136° Southeast 448 516 35,000  Level Kansas City Center
01:09PM 36.3950 -98.8350 136° Southeast 451 519 35,000  Level Kansas City Center
01:10PM 36.2864 -98.7039 136° Southeast 450 518 35,000  Level Kansas City Center
01:11PM 36.1953 -98.5958 136° Southeast 449 517 35,000  Level Kansas City Center
01:12PM 36.1053 -98.4869 136° Southeast 449 517 35,000  Level Kansas City Center
01:13PM 36.0150 -98.3800 136° Southeast 446 513 35,000  Level Kansas City Center
01:14PM 35.9247 -98.2725 136° Southeast 448 516 35,000  Level Kansas City Center
01:15PM 35.8336 -98.1644 136° Southeast 450 518 35,000  Level Kansas City Center
01:16PM 35.7361 -98.0528 137° Southeast 449 517 35,000  Level Fort Worth Center
01:17PM 35.6572 -97.9603 136° Southeast 441 507 35,000  Level Fort Worth Center
01:18PM 35.5639 -97.8525 137° Southeast 447 514 35,000  Level Fort Worth Center
01:19PM 35.4725 -97.7475 137° Southeast 447 514 35,000  Level Fort Worth Center
01:20PM 35.3808 -97.6453 138° Southeast 447 514 35,000  Level Fort Worth Center
01:21PM 35.2914 -97.5306 134° Southeast 452 520 35,000  Level Fort Worth Center
01:22PM 35.2019 -97.3983 130° Southeast 457 526 35,000  Level Fort Worth Center
01:23PM 35.1267 -97.3094 136° Southeast 457 526 35,000  Level Fort Worth Center
01:24PM 35.0264 -97.1728 132° Southeast 463 533 35,000  Level Fort Worth Center
01:25PM 34.9386 -97.0589 133° Southeast 457 526 35,000  Level Fort Worth Center
01:26PM 34.8547 -96.9453 132° Southeast 452 520 35,000  Level Fort Worth Center
01:27PM 34.7667 -96.8322 133° Southeast 452 520 35,000  Level Fort Worth Center
01:28PM 34.6806 -96.7167 132° Southeast 452 520 35,000  Level Fort Worth Center
01:29PM 34.5922 -96.6014 133° Southeast 452 520 35,000  Level Fort Worth Center
01:30PM 34.5039 -96.4886 134° Southeast 452 520 35,000  Level Fort Worth Center
01:31PM 34.4153 -96.3739 133° Southeast 452 520 35,000  Level Fort Worth Center
01:32PM 34.3289 -96.2617 133° Southeast 452 520 35,000  Level Fort Worth Center
01:33PM 34.2400 -96.1497 134° Southeast 452 520 35,000  Level Fort Worth Center
01:34PM 34.1511 -96.0383 134° Southeast 452 520 35,000  Level Fort Worth Center
01:35PM 34.0792 -95.9339 130° Southeast 452 520 35,000  Level Fort Worth Center
01:36PM 33.9922 -95.8228 133° Southeast 452 520 35,000  Level Fort Worth Center
01:37PM 33.8989 -95.7069 134° Southeast 465 535 35,000  Level Fort Worth Center
01:38PM 33.8117 -95.5936 133° Southeast 465 535 35,000  Level Fort Worth Center
01:39PM 33.7119 -95.4758 135° Southeast 465 535 35,000 480 Level Fort Worth Center
01:40PM 33.6267 -95.3628 132° Southeast 465 535 36,000 780 Climbing Fort Worth Center
01:41PM 33.5369 -95.2528 134° Southeast 465 535 36,600 480 Climbing Fort Worth Center
01:42PM 33.4494 -95.1406 133° Southeast 458 527 37,000 180 Climbing Fort Worth Center
01:43PM 33.3578 -95.0308 135° Southeast 463 533 37,000  Level Fort Worth Center
01:44PM 33.2678 -94.9192 134° Southeast 463 533 37,000  Level Fort Worth Center
01:45PM 33.1758 -94.8025 133° Southeast 470 541 37,000  Level Fort Worth Center
01:46PM 33.0858 -94.6936 135° Southeast 470 541 37,000  Level Fort Worth Center
01:47PM 32.9956 -94.5800 133° Southeast 470 541 37,000  Level Fort Worth Center
01:48PM 32.9033 -94.4667 134° Southeast 470 541 37,000  Level Fort Worth Center
01:49PM 32.8108 -94.3558 135° Southeast 470 541 37,000  Level Fort Worth Center
01:50PM 32.7183 -94.2381 133° Southeast 476 548 37,000  Level Fort Worth Center
01:51PM 32.6256 -94.1256 134° Southeast 476 548 37,000  Level Fort Worth Center
01:52PM 32.5328 -94.0131 134° Southeast 476 548 37,000  Level Fort Worth Center
01:53PM 32.4419 -93.9008 134° Southeast 476 548 37,000  Level Fort Worth Center
01:54PM 32.3492 -93.7886 134° Southeast 476 548 37,000  Level Fort Worth Center
01:57PM 32.1358 -93.5350 135° Southeast 476 548 37,000  Level Houston Center
01:58PM 32.0419 -93.4228 135° Southeast 479 551 37,000  Level Houston Center
01:59PM 31.9489 -93.3119 135° Southeast 479 551 37,000  Level Houston Center
02:00PM 31.8547 -93.2025 135° Southeast 477 549 37,000 -60 Level Houston Center
02:01PM 31.7519 -93.0792 134° Southeast 477 549 36,900 -60 Descending Houston Center
02:02PM 31.6558 -92.9669 135° Southeast 484 557 36,900  Level Houston Center
02:03PM 31.5619 -92.8581 135° Southeast 479 551 37,000  Climbing Houston Center
02:04PM 31.4672 -92.7461 135° Southeast 479 551 36,900  Descending Houston Center
02:05PM 31.3533 -92.6142 135° Southeast 482 555 37,000  Climbing Houston Center
02:06PM 31.2558 -92.5003 135° Southeast 492 566 37,000 -60 Level Houston Center
02:07PM 31.1589 -92.3856 135° Southeast 495 570 36,900 -60 Descending Houston Center
02:08PM 31.0631 -92.2719 135° Southeast 491 565 36,900  Level Houston Center
02:09PM 30.9681 -92.1589 134° Southeast 497 572 37,000  Climbing Houston Center
02:10PM 30.8519 -92.0217 135° Southeast 497 572 37,000  Level Houston Center
02:11PM 30.7542 -91.9069 135° Southeast 500 575 37,000  Level Houston Center
02:12PM 30.6567 -91.7925 135° Southeast 500 575 37,000  Level Houston Center
02:13PM 30.5592 -91.6792 135° Southeast 497 572 37,000 -60 Level Houston Center
02:14PM 30.4539 -91.5558 135° Southeast 497 572 36,900  Descending Houston Center
02:15PM 30.3567 -91.4433 135° Southeast 496 571 37,000  Climbing Houston Center
02:16PM 30.2589 -91.3311 135° Southeast 494 568 36,900 -60 Descending Houston Center
02:17PM 30.1611 -91.2178 135° Southeast 498 573 36,900  Level Houston Center
02:18PM 30.0533 -91.0681 130° Southeast 514 592 36,900  Level Houston Center
02:20PM 29.9839 -90.9217 119° Southeast 522 601 36,900  Level Houston Center
02:21PM 29.9119 -90.7753 120° Southeast 525 604 37,000  Climbing Houston Center
02:22PM 29.8419 -90.6294 119° Southeast 526 605 37,000  Level Houston Center
02:23PM 29.7700 -90.4819 119° Southeast 530 610 37,000  Level Houston Center
02:24PM 29.6847 -90.3081 119° Southeast 526 605 37,000 -60 Level Houston Center
02:25PM 29.6133 -90.1639 120° Southeast 523 602 36,900  Descending Houston Center
02:26PM 29.5417 -90.0194 120° Southeast 523 602 37,000  Climbing Houston Center
02:27PM 29.4708 -89.8758 120° Southeast 521 600 36,900 -60 Descending Houston Center
02:28PM 29.3986 -89.7331 120° Southeast 521 600 36,900  Level Houston Center
02:29PM 29.3150 -89.5589 119° Southeast 522 601 36,900  Level Houston Center
02:30PM 29.2442 -89.4125 119° Southeast 526 605 36,900  Level Houston Center
02:31PM 29.1708 -89.2708 121° Southeast 521 600 37,000  Climbing Houston Center
02:32PM 29.1022 -89.1250 118° Southeast 522 601 37,000  Level Houston Center
02:33PM 29.0556 -88.9675 109° East 524 603 37,000 -60 Level Houston Center
02:34PM 29.0094 -88.8117 109° East 522 601 36,900  Descending Houston Center
02:35PM 28.9533 -88.6256 109° East 520 598 37,000  Climbing Houston Center
02:36PM 28.9069 -88.4731 109° East 514 592 37,000 -60 Level Houston Center
02:37PM 28.8608 -88.3217 109° East 508 585 36,900 -60 Descending Houston Center
02:38PM 28.8150 -88.1714 109° East 505 581 36,900  Level Houston Center
02:39PM 28.7664 -88.0122 109° East 503 579 36,900  Level Houston Center
02:40PM 28.7353 -87.8561 103° East 506 582 37,000  Climbing Houston Center
02:41PM 28.7106 -87.7000 100° East 505 581 37,000  Level Houston Center
02:42PM 28.6811 -87.5144 100° East 499 574 37,000 -60 Level Houston Center
02:43PM 28.6556 -87.3586 101° East 500 575 36,900  Descending Houston Center
02:44PM 28.6481 -87.3064 99° East 491 565 37,000  Climbing Jacksonville Center
02:45PM 28.6219 -87.1517 101° East 491 565 36,900 -60 Descending Jacksonville Center
02:46PM 28.5975 -86.9992 100° East 484 557 36,900  Level Jacksonville Center
02:47PM 28.5750 -86.8542 100° East 484 557 36,900  Level Jacksonville Center
02:48PM 28.5506 -86.7019 100° East 492 566 37,000  Climbing Jacksonville Center
02:49PM 28.5236 -86.5475 101° East 487 560 37,000 -600 Level Jacksonville Center
02:50PM 28.4964 -86.3978 102° East 481 554 35,800 -1,080 Descending Jacksonville Center
02:51PM 28.4753 -86.2553 100° East 475 547 34,900 -420 Descending Jacksonville Center
02:52PM 28.4497 -86.1106 101° East 469 540 35,000  Climbing Jacksonville Center
02:53PM 28.4261 -85.9681 101° East 464 534 34,900 -600 Descending Jacksonville Center
02:54PM 28.4022 -85.8328 101° East 447 514 33,800 -1,500 Descending Jacksonville Center
02:55PM 28.3781 -85.6931 101° East 447 514 31,900 -1,500 Descending Jacksonville Center
02:56PM 28.3519 -85.5531 102° East 454 522 30,900 -900 Descending Jacksonville Center
02:57PM 28.3278 -85.4064 101° East 454 522 30,200 -900 Descending Jacksonville Center
02:58PM 28.3053 -85.2689 100° East 449 517 29,200 -1,020 Descending Jacksonville Center
02:59PM 28.2653 -85.0417 101° East 442 509 27,600 -1,020 Descending Miami Center
03:00PM 28.2394 -84.9106 103° East 431 496 26,700 -960 Descending Miami Center
03:01PM 28.2153 -84.7794 102° East 425 489 25,700 -900 Descending Miami Center
03:02PM 28.1953 -84.6533 100° East 419 482 25,000 -360 Descending Miami Center
03:03PM 28.1747 -84.5297 101° East 414 476 25,000  Level Miami Center
03:04PM 28.1483 -84.3983 103° East 414 476 25,000  Level Miami Center
03:05PM 28.1194 -84.2719 105° East 414 476 25,000 -600 Level Miami Center
03:06PM 28.0969 -84.1436 101° East 414 476 23,900 -1,500 Descending Miami Center
03:07PM 28.0781 -84.0200 100° East 414 476 22,000 -1,800 Descending Miami Center
03:08PM 28.0508 -83.9008 104° East 403 464 20,300 -1,740 Descending Miami Center
03:09PM 28.0294 -83.7822 102° East 391 450 18,600 -1,680 Descending Miami Center
03:10PM 28.0097 -83.6706 101° East 373 429 17,000 -1,620 Descending Miami Center
03:11PM 27.9878 -83.5589 103° East 366 421 15,400 -1,620 Descending Miami Center
03:12PM 27.9697 -83.4567 101° East 354 407 13,800 -1,560 Descending Miami Center
03:13PM 27.9514 -83.3547 101° East 341 392 12,300 -1,500 Descending Miami Center
03:14PM 27.9286 -83.2547 104° East 334 384 10,900 -1,200 Descending Miami Center
03:15PM 27.9161 -83.1603 98° East 315 362 9,900 -540 Descending Miami Center
03:16PM 27.9347 -83.0694 77° East 295 339 9,900  Level Miami Center
03:17PM 27.9572 -82.9817 74° East 295 339 9,900 -840 Level Miami Center
03:18PM 27.9800 -82.8889 74° East 295 339 8,300 -1,380 Descending Miami Center
03:19PM 28.0000 -82.8333 68° East 297 342 7,800 -840 Descending Tampa TRACON
03:20PM 28.0167 -82.7500 77° East 285 328 7,000 -900 Descending Tampa TRACON
03:21PM 28.0500 -82.6667 66° East 276 318 6,100 -720 Descending Tampa TRACON
03:22PM 28.0833 -82.6167 53° Northeast 269 310 5,600 -960 Descending Tampa TRACON
03:23PM 28.1667 -82.6167 360° North 272 313 4,200 -1,320 Descending Tampa TRACON
03:24PM 28.1833 -82.5667 69° East 211 243 3,000 -840 Descending Tampa TRACON
03:25PM 28.1500 -82.5333 139° Southeast 174 200 2,500 -480 Descending Tampa TRACON